Terminal Aerodrome Forecast
Issued by NWS Charleston, WV

Current Version | Previous Version | Graphics & Text | Print | Product List | Glossary On
Versions: 1 2 3 4 5 6 7 8 9 10 11 12 13 14 15 16 17 18 19 20 21 22 23 24 25 26 27 28 29 30 31
963
FTUS41 KRLX 070220 AAB
TAFCRW
TAF AMD
KCRW 070220Z 0702/0724 27008KT P6SM BKN006 OVC014
      TEMPO 0702/0703 SCT006
     FM070300 27008G15KT P6SM OVC012
     FM070500 28007KT P6SM BKN011
     FM071600 VRB03KT P6SM BKN060=

USA.gov is the U.S. government's official web portal to all federal, state and local government web resources and services.